createdAt,value
2023-02-11T00:01:07.683Z,17.25
2023-02-11T00:03:35.569Z,21.40
2023-02-11T00:06:05.481Z,27.48
2023-02-11T00:08:33.258Z,19.87
2023-02-11T00:11:02.274Z,26.00
2023-02-11T00:13:29.940Z,24.57
2023-02-11T00:15:57.570Z,23.13
2023-02-11T00:18:25.371Z,23.37
2023-02-11T00:20:53.090Z,18.80
2023-02-11T00:23:20.763Z,22.93
2023-02-11T00:25:48.663Z,24.83
2023-02-11T00:28:17.879Z,22.85
2023-02-11T00:30:45.674Z,28.13
2023-02-11T00:33:13.412Z,16.57
2023-02-11T00:35:41.008Z,25.27
2023-02-11T00:38:08.703Z,29.47
2023-02-11T00:40:36.353Z,21.43
2023-02-11T00:43:03.991Z,19.63
2023-02-11T00:45:32.979Z,28.70
2023-02-11T00:48:00.589Z,31.40
2023-02-11T00:50:28.204Z,26.33
2023-02-11T00:52:55.912Z,22.80
2023-02-11T00:55:23.661Z,21.20
2023-02-11T00:57:51.791Z,25.87
2023-02-11T01:00:19.599Z,24.77
2023-02-11T01:02:48.645Z,19.57
2023-02-11T01:05:16.401Z,38.53
2023-02-11T01:07:44.103Z,24.13
2023-02-11T01:10:12.312Z,24.13
2023-02-11T01:12:40.443Z,29.27
2023-02-11T01:15:10.198Z,23.02
2023-02-11T01:17:37.835Z,23.90
2023-02-11T01:20:08.628Z,29.27
2023-02-11T01:22:37.417Z,22.37
2023-02-11T01:27:32.689Z,19.53
2023-02-11T01:30:00.442Z,22.93
2023-02-11T01:32:28.055Z,20.63
2023-02-11T01:34:55.733Z,30.63
2023-02-11T01:37:24.712Z,25.23
2023-02-11T01:39:52.527Z,20.43
2023-02-11T01:42:21.989Z,26.07
2023-02-11T01:44:52.307Z,25.43
2023-02-11T01:47:20.839Z,24.40
2023-02-11T01:49:52.906Z,23.48
2023-02-11T01:52:26.990Z,27.00
2023-02-11T01:55:16.196Z,23.57
2023-02-11T01:57:47.174Z,24.73
2023-02-11T02:00:20.295Z,19.37
2023-02-11T02:02:54.725Z,26.97
2023-02-11T02:05:33.386Z,32.60
2023-02-11T02:10:36.563Z,22.00
2023-02-11T02:13:04.528Z,23.67
2023-02-11T02:15:35.236Z,32.40
2023-02-11T02:18:15.049Z,26.83
2023-02-11T02:21:13.379Z,25.77
2023-02-11T02:24:13.876Z,29.17
2023-02-11T02:27:09.257Z,23.03
2023-02-11T02:30:03.670Z,30.83
2023-02-11T02:32:48.201Z,27.77
2023-02-11T02:35:25.964Z,24.20
2023-02-11T02:38:02.259Z,26.77
2023-02-11T02:40:34.267Z,22.97
2023-02-11T02:43:03.987Z,33.70
2023-02-11T02:45:31.846Z,24.30
2023-02-11T02:48:00.870Z,24.52
2023-02-11T02:50:32.325Z,24.53
2023-02-11T02:53:16.843Z,26.40
2023-02-11T02:55:58.623Z,27.00
2023-02-11T02:58:56.373Z,25.97
2023-02-11T03:01:36.738Z,23.13
2023-02-11T03:04:13.289Z,28.30
2023-02-11T03:06:49.591Z,28.73
2023-02-11T03:09:23.036Z,25.13
2023-02-11T03:11:51.158Z,32.37
2023-02-11T03:14:20.432Z,21.48
2023-02-11T03:16:50.963Z,23.97
2023-02-11T03:19:23.473Z,27.70
2023-02-11T03:21:54.273Z,26.27
2023-02-11T03:24:28.599Z,21.80
2023-02-11T03:26:59.833Z,19.87
2023-02-11T03:29:35.912Z,28.17
2023-02-11T03:32:12.181Z,24.60
2023-02-11T03:34:48.206Z,18.90
2023-02-11T03:37:20.959Z,29.07
2023-02-11T03:39:52.494Z,26.83
2023-02-11T03:42:20.564Z,25.63
2023-02-11T03:44:52.800Z,19.35
2023-02-11T03:47:24.986Z,21.63
2023-02-11T03:49:56.423Z,19.60
2023-02-11T03:52:26.644Z,25.93
2023-02-11T03:54:58.606Z,30.00
2023-02-11T03:57:26.258Z,28.50
2023-02-11T03:59:56.117Z,31.30
2023-02-11T04:02:26.705Z,23.20
2023-02-11T04:04:56.007Z,28.13
2023-02-11T04:07:23.745Z,24.53
2023-02-11T04:09:51.474Z,26.87
2023-02-11T04:12:19.326Z,28.10
2023-02-11T04:14:47.127Z,28.40
2023-02-11T04:17:14.845Z,30.07
2023-02-11T04:19:42.520Z,28.50
2023-02-11T04:22:11.636Z,29.73
2023-02-11T04:24:39.374Z,25.80
2023-02-11T04:27:07.037Z,32.40
2023-02-11T04:29:34.749Z,39.73
2023-02-11T04:32:02.407Z,27.90
2023-02-11T04:34:30.001Z,34.20
2023-02-11T04:36:57.715Z,26.50
2023-02-11T04:39:26.690Z,28.80
2023-02-11T04:41:54.298Z,31.13
2023-02-11T04:44:22.040Z,27.30
2023-02-11T04:46:49.736Z,30.97
2023-02-11T04:49:18.628Z,33.63
2023-02-11T04:54:17.342Z,33.60
2023-02-11T04:56:46.456Z,38.53
2023-02-11T04:59:14.101Z,35.07
2023-02-11T05:01:42.178Z,27.13
2023-02-11T05:04:09.920Z,41.22
2023-02-11T05:06:39.353Z,32.63
2023-02-11T05:09:07.027Z,41.43
2023-02-11T05:11:36.661Z,42.87
2023-02-11T05:14:05.926Z,34.07
2023-02-11T05:16:33.659Z,40.80
2023-02-11T05:19:01.737Z,38.53
2023-02-11T05:21:29.373Z,38.63
2023-02-11T05:23:57.047Z,38.20
2023-02-11T05:26:24.689Z,31.63
2023-02-11T05:28:52.348Z,37.23
2023-02-11T05:31:21.358Z,33.33
2023-02-11T05:33:49.022Z,41.47
2023-02-11T05:36:16.979Z,40.77
2023-02-11T05:38:44.853Z,44.08
2023-02-11T05:41:13.094Z,42.07
2023-02-11T05:43:40.726Z,44.92
2023-02-11T05:46:08.624Z,40.40
2023-02-11T05:48:37.600Z,47.88
2023-02-11T05:53:33.035Z,38.90
2023-02-11T05:56:00.748Z,39.17
2023-02-11T05:58:28.601Z,44.40
2023-02-11T06:00:56.270Z,36.80
2023-02-11T06:03:24.067Z,42.77
2023-02-11T06:05:53.295Z,40.83
2023-02-11T06:08:21.074Z,36.67
2023-02-11T06:10:48.736Z,43.27
2023-02-11T06:13:18.546Z,47.10
2023-02-11T06:15:46.388Z,41.67
2023-02-11T06:18:13.997Z,37.27
2023-02-11T06:20:41.844Z,44.33
2023-02-11T06:23:10.803Z,41.03
2023-02-11T06:25:38.528Z,43.60
2023-02-11T06:28:06.285Z,39.57
2023-02-11T06:30:33.997Z,43.13
2023-02-11T06:33:01.686Z,44.90
2023-02-11T06:35:30.517Z,52.40
2023-02-11T06:40:27.313Z,44.03
2023-02-11T06:42:54.944Z,47.10
2023-02-11T06:45:22.645Z,51.63
2023-02-11T06:47:52.796Z,48.70
2023-02-11T06:50:20.518Z,47.30
2023-02-11T06:52:48.234Z,42.60
2023-02-11T06:55:16.093Z,51.90
2023-02-11T06:57:45.280Z,48.92
2023-02-11T07:00:14.579Z,51.30
2023-02-11T07:02:42.411Z,51.40
2023-02-11T07:05:10.668Z,60.83
2023-02-11T07:07:38.438Z,47.13
2023-02-11T07:10:06.998Z,49.00
2023-02-11T07:12:34.676Z,49.88
2023-02-11T07:15:03.774Z,48.03
2023-02-11T07:17:31.397Z,56.00
2023-02-11T07:19:59.082Z,50.23
2023-02-11T07:22:26.731Z,49.37
2023-02-11T07:24:54.432Z,50.53
2023-02-11T07:27:22.013Z,51.80
2023-02-11T07:29:49.679Z,48.27
2023-02-11T07:32:18.810Z,48.40
2023-02-11T07:34:47.998Z,53.13
2023-02-11T07:37:15.685Z,52.70
2023-02-11T07:39:43.350Z,48.87
2023-02-11T07:42:11.018Z,52.00
2023-02-11T07:44:38.690Z,50.07
2023-02-11T07:47:06.400Z,53.13
2023-02-11T07:49:35.489Z,60.40
2023-02-11T07:52:03.129Z,51.33
2023-02-11T07:54:30.793Z,49.40
2023-02-11T07:56:58.713Z,53.63
2023-02-11T07:59:27.399Z,52.67
2023-02-11T08:01:55.185Z,55.17
2023-02-11T08:04:22.848Z,48.27
2023-02-11T08:06:52.828Z,53.20
2023-02-11T08:09:20.565Z,49.80
2023-02-11T08:11:48.185Z,48.67
2023-02-11T08:14:15.966Z,45.57
2023-02-11T08:16:44.037Z,48.00
2023-02-11T08:19:14.746Z,50.42
2023-02-11T08:21:42.689Z,46.73
2023-02-11T08:24:11.953Z,49.25
2023-02-11T08:26:39.716Z,48.80
2023-02-11T08:29:10.114Z,48.67
2023-02-11T08:31:40.480Z,45.97
2023-02-11T08:34:08.373Z,48.00
2023-02-11T08:36:37.686Z,49.03
2023-02-11T08:39:18.745Z,52.73
2023-02-11T08:41:49.866Z,55.80
2023-02-11T08:44:18.276Z,49.87
2023-02-11T08:46:45.864Z,49.03
2023-02-11T08:49:13.575Z,39.13
2023-02-11T08:51:41.321Z,48.17
2023-02-11T08:54:10.006Z,44.60
2023-02-11T08:59:07.487Z,44.20
2023-02-11T09:01:35.633Z,42.50
2023-02-11T09:04:03.482Z,43.22
2023-02-11T09:06:31.683Z,45.60
2023-02-11T09:08:59.469Z,44.53
2023-02-11T09:11:29.425Z,39.97
2023-02-11T09:13:57.236Z,42.07
2023-02-11T09:16:28.370Z,44.33
2023-02-11T09:18:58.344Z,38.27
2023-02-11T09:21:26.699Z,38.80
2023-02-11T09:23:54.530Z,40.95
2023-02-11T09:26:24.555Z,37.83
2023-02-11T09:28:53.570Z,39.73
2023-02-11T09:31:23.241Z,42.13
2023-02-11T09:33:54.105Z,40.17
2023-02-11T09:36:23.834Z,43.37
2023-02-11T09:38:52.004Z,36.23
2023-02-11T09:41:40.471Z,38.22
2023-02-11T09:44:11.172Z,35.72
2023-02-11T09:46:43.036Z,39.07
2023-02-11T09:49:20.962Z,34.80
2023-02-11T09:51:53.486Z,41.20
2023-02-11T09:54:27.791Z,34.50
2023-02-11T09:56:55.491Z,35.40
2023-02-11T09:59:23.891Z,38.67
2023-02-11T10:01:57.449Z,35.63
2023-02-11T10:04:45.407Z,36.17
2023-02-11T10:07:22.572Z,34.83
2023-02-11T10:10:01.561Z,33.67
2023-02-11T10:12:44.913Z,33.57
2023-02-11T10:15:33.432Z,30.30
2023-02-11T10:18:16.083Z,33.63
2023-02-11T10:20:57.115Z,37.67
2023-02-11T10:23:27.668Z,35.97
2023-02-11T10:25:57.058Z,34.77
2023-02-11T10:28:29.967Z,39.27
2023-02-11T10:31:01.242Z,34.30
2023-02-11T10:33:32.504Z,32.20
2023-02-11T10:36:01.782Z,30.67
2023-02-11T10:38:29.477Z,32.00
2023-02-11T10:40:57.135Z,30.03
2023-02-11T10:43:27.653Z,34.67
2023-02-11T10:45:56.899Z,30.20
2023-02-11T10:48:41.489Z,29.83
2023-02-11T10:51:18.703Z,30.27
2023-02-11T10:53:47.744Z,27.70
2023-02-11T10:56:23.245Z,30.20
2023-02-11T10:58:58.682Z,31.00
2023-02-11T11:01:40.348Z,27.50
2023-02-11T11:04:28.507Z,25.77
2023-02-11T11:06:57.879Z,19.40
2023-02-11T11:09:29.884Z,15.07
2023-02-11T11:11:57.932Z,15.00
2023-02-11T11:14:29.045Z,17.10
2023-02-11T11:16:56.877Z,15.33
2023-02-11T11:19:26.518Z,13.43
2023-02-11T11:21:55.959Z,18.90
2023-02-11T11:24:30.219Z,13.10
2023-02-11T11:27:01.911Z,14.83
2023-02-11T11:29:35.853Z,12.20
2023-02-11T11:32:06.549Z,16.00
2023-02-11T11:34:37.206Z,16.90
2023-02-11T11:37:12.742Z,14.43
2023-02-11T11:39:42.382Z,14.53
2023-02-11T11:42:26.552Z,15.00
2023-02-11T11:44:59.402Z,14.13
2023-02-11T11:47:36.063Z,13.97
2023-02-11T11:50:26.184Z,13.97
2023-02-11T11:53:01.210Z,13.90
2023-02-11T11:55:36.261Z,13.17
2023-02-11T11:58:05.142Z,17.10
2023-02-11T12:00:38.815Z,15.10
2023-02-11T12:03:52.266Z,15.33
2023-02-11T12:06:31.873Z,11.63
2023-02-11T12:09:10.792Z,14.33
2023-02-11T12:12:05.833Z,10.80
2023-02-11T12:14:42.239Z,12.77
2023-02-11T12:17:21.017Z,11.50
2023-02-11T12:20:02.349Z,12.93
2023-02-11T12:22:40.021Z,9.57
2023-02-11T12:25:24.896Z,11.73
2023-02-11T12:28:02.727Z,10.50
2023-02-11T12:30:49.076Z,12.70
2023-02-11T12:33:28.576Z,13.50
2023-02-11T12:36:03.263Z,12.77
2023-02-11T12:38:44.081Z,11.90
2023-02-11T12:41:47.030Z,10.20
2023-02-11T12:44:25.627Z,10.27
2023-02-11T12:49:49.274Z,11.47
2023-02-11T12:52:28.329Z,11.53
2023-02-11T12:55:01.400Z,12.77
2023-02-11T12:57:32.910Z,12.73
2023-02-11T13:00:08.898Z,14.67
2023-02-11T13:02:44.462Z,12.67
2023-02-11T13:05:24.136Z,11.43
2023-02-11T13:07:53.964Z,12.07
2023-02-11T13:10:28.965Z,12.60
2023-02-11T13:13:15.510Z,12.23
2023-02-11T13:15:48.738Z,9.50
2023-02-11T13:18:30.322Z,13.67
2023-02-11T13:21:05.100Z,10.37
2023-02-11T13:23:40.417Z,10.60
2023-02-11T13:26:18.112Z,11.00
2023-02-11T13:28:53.095Z,17.80
2023-02-11T13:31:26.712Z,12.97
2023-02-11T13:33:54.378Z,12.20
2023-02-11T13:36:26.741Z,12.00
2023-02-11T13:39:00.946Z,13.47
2023-02-11T13:41:38.071Z,12.87
2023-02-11T13:44:22.338Z,11.73
2023-02-11T13:46:55.895Z,12.10
2023-02-11T13:49:26.791Z,12.43
2023-02-11T13:51:55.854Z,13.03
2023-02-11T13:54:29.337Z,11.40
2023-02-11T13:57:35.544Z,9.10
2023-02-11T14:00:09.549Z,11.43
2023-02-11T14:02:56.590Z,10.57
2023-02-11T14:05:49.995Z,11.70
2023-02-11T14:08:43.140Z,10.80
2023-02-11T14:11:49.197Z,9.70
2023-02-11T14:14:25.537Z,11.83
2023-02-11T14:17:30.829Z,12.97
2023-02-11T14:20:02.171Z,11.07
2023-02-11T14:22:40.996Z,11.03
2023-02-11T14:25:19.435Z,13.10
2023-02-11T14:27:54.460Z,10.80
2023-02-11T14:30:33.600Z,11.87
2023-02-11T14:33:21.407Z,10.33
2023-02-11T14:36:02.049Z,13.10
2023-02-11T14:38:41.808Z,9.73
2023-02-11T14:41:17.177Z,12.03
2023-02-11T14:43:49.395Z,10.03
2023-02-11T14:46:18.652Z,13.47
2023-02-11T14:48:49.094Z,11.33
2023-02-11T14:51:23.301Z,10.60
2023-02-11T14:53:54.008Z,15.13
2023-02-11T14:56:24.594Z,10.83
2023-02-11T14:58:52.785Z,11.40
2023-02-11T15:01:27.072Z,11.55
2023-02-11T15:03:56.379Z,12.17
2023-02-11T15:06:29.122Z,12.63
2023-02-11T15:09:00.883Z,11.17
2023-02-11T15:11:31.237Z,10.97
2023-02-11T15:14:07.342Z,10.87
2023-02-11T15:16:36.007Z,10.50
2023-02-11T15:19:07.522Z,10.05
2023-02-11T15:21:37.684Z,9.33
2023-02-11T15:24:21.727Z,7.83
2023-02-11T15:26:57.362Z,9.57
2023-02-11T15:29:26.450Z,8.53
2023-02-11T15:32:15.731Z,11.07
2023-02-11T15:34:44.419Z,11.93
2023-02-11T15:37:18.102Z,11.95
2023-02-11T15:39:45.794Z,11.53
2023-02-11T15:42:25.899Z,13.13
2023-02-11T15:45:10.169Z,11.33
2023-02-11T15:47:37.900Z,11.83
2023-02-11T15:50:06.374Z,15.17
2023-02-11T15:52:35.669Z,14.75
2023-02-11T15:55:03.718Z,12.93
2023-02-11T15:57:31.604Z,10.82
2023-02-11T16:00:04.438Z,13.82
2023-02-11T16:02:34.264Z,14.23
2023-02-11T16:05:04.143Z,10.07
2023-02-11T16:07:44.859Z,7.37
2023-02-11T16:10:24.786Z,10.20
2023-02-11T16:12:54.702Z,12.80
2023-02-11T16:15:52.385Z,13.87
2023-02-11T16:18:38.760Z,10.57
2023-02-11T16:21:14.457Z,10.80
2023-02-11T16:23:44.476Z,14.73
2023-02-11T16:26:22.005Z,11.57
2023-02-11T16:28:50.213Z,13.87
2023-02-11T16:31:18.478Z,14.60
2023-02-11T16:33:46.300Z,14.73
2023-02-11T16:36:17.075Z,15.33
2023-02-11T16:38:46.241Z,13.80
2023-02-11T16:41:14.367Z,16.40
2023-02-11T16:43:42.038Z,12.63
2023-02-11T16:46:11.986Z,11.67
2023-02-11T16:48:39.593Z,14.03
2023-02-11T16:51:09.267Z,13.90
2023-02-11T16:53:36.913Z,15.20
2023-02-11T16:56:06.518Z,14.27
2023-02-11T16:58:34.187Z,14.20
2023-02-11T17:01:02.063Z,11.40
2023-02-11T17:03:30.304Z,14.95
2023-02-11T17:05:58.284Z,12.48
2023-02-11T17:08:26.010Z,11.77
2023-02-11T17:10:53.925Z,14.47
2023-02-11T17:13:23.123Z,13.25
2023-02-11T17:15:51.253Z,12.53
2023-02-11T17:18:19.107Z,14.02
2023-02-11T17:20:46.880Z,18.50
2023-02-11T17:23:14.576Z,13.53
2023-02-11T17:25:42.257Z,14.00
2023-02-11T17:28:12.029Z,13.77
2023-02-11T17:30:43.524Z,13.97
2023-02-11T17:33:11.204Z,16.23
2023-02-11T17:35:41.458Z,21.13
2023-02-11T17:38:09.136Z,17.87
2023-02-11T17:40:36.736Z,15.37
2023-02-11T17:43:04.615Z,16.30
2023-02-11T17:45:32.427Z,16.55
2023-02-11T17:48:01.489Z,17.07
2023-02-11T17:50:29.593Z,16.50
2023-02-11T17:52:57.910Z,17.08
2023-02-11T17:55:25.534Z,13.57
2023-02-11T17:57:53.137Z,16.90
2023-02-11T18:00:22.460Z,14.73
2023-02-11T18:02:50.205Z,17.00
2023-02-11T18:05:19.371Z,14.57
2023-02-11T18:07:48.014Z,13.20
2023-02-11T18:10:15.670Z,13.93
2023-02-11T18:12:43.445Z,16.50
2023-02-11T18:15:11.709Z,14.47
2023-02-11T18:17:39.357Z,13.35
2023-02-11T18:20:08.695Z,13.07
2023-02-11T18:22:40.163Z,16.23
2023-02-11T18:25:09.244Z,15.23
2023-02-11T18:27:37.160Z,18.87
2023-02-11T18:30:05.418Z,15.90
2023-02-11T18:32:33.260Z,19.55
2023-02-11T18:35:00.951Z,16.67
2023-02-11T18:37:28.619Z,17.73
2023-02-11T18:39:57.640Z,16.73
2023-02-11T18:42:25.351Z,20.33
2023-02-11T18:44:53.198Z,16.83
2023-02-11T18:47:20.855Z,16.95
2023-02-11T18:49:48.446Z,19.37
2023-02-11T18:52:16.075Z,19.23
2023-02-11T18:54:43.719Z,14.83
2023-02-11T18:57:12.730Z,20.57
2023-02-11T18:59:40.389Z,16.83
2023-02-11T19:02:08.071Z,19.53
2023-02-11T19:04:37.335Z,16.73
2023-02-11T19:07:04.968Z,18.20
2023-02-11T19:09:32.731Z,20.50
2023-02-11T19:12:01.908Z,16.53
2023-02-11T19:14:33.451Z,19.90
2023-02-11T19:17:03.344Z,20.77
2023-02-11T19:19:33.049Z,16.57
2023-02-11T19:22:02.587Z,16.73
2023-02-11T19:24:31.484Z,18.47
2023-02-11T19:27:01.672Z,21.10
2023-02-11T19:29:32.065Z,22.63
2023-02-11T19:31:59.824Z,23.30
2023-02-11T19:34:27.566Z,25.10
2023-02-11T19:36:55.474Z,22.20
2023-02-11T19:39:24.678Z,21.02
2023-02-11T19:41:52.339Z,21.43
2023-02-11T19:44:19.990Z,19.23
2023-02-11T19:46:52.787Z,23.33
2023-02-11T19:49:23.352Z,20.30
2023-02-11T19:51:51.471Z,17.20
2023-02-11T19:54:20.217Z,19.17
2023-02-11T19:56:48.752Z,18.48
2023-02-11T19:59:17.093Z,23.27
2023-02-11T20:01:47.513Z,18.58
2023-02-11T20:04:17.354Z,20.87
2023-02-11T20:06:45.493Z,22.80
2023-02-11T20:09:15.218Z,23.27
2023-02-11T20:11:43.436Z,18.93
2023-02-11T20:14:14.733Z,21.35
2023-02-11T20:16:49.228Z,20.67
2023-02-11T20:19:21.542Z,24.87
2023-02-11T20:21:52.096Z,18.73
2023-02-11T20:24:20.697Z,23.73
2023-02-11T20:26:49.066Z,22.83
2023-02-11T20:29:17.305Z,23.40
2023-02-11T20:31:45.546Z,19.88
2023-02-11T20:34:13.661Z,24.48
2023-02-11T20:36:42.755Z,24.85
2023-02-11T20:39:17.055Z,22.33
2023-02-11T20:41:45.927Z,22.03
2023-02-11T20:46:43.372Z,21.23
2023-02-11T20:49:12.285Z,21.63
2023-02-11T20:51:40.567Z,20.43
2023-02-11T20:54:13.220Z,20.15
2023-02-11T20:56:40.829Z,22.20
2023-02-11T20:59:08.854Z,22.37
2023-02-11T21:01:40.615Z,20.33
2023-02-11T21:04:12.560Z,21.93
2023-02-11T21:06:42.059Z,23.33
2023-02-11T21:09:14.489Z,22.27
2023-02-11T21:11:42.797Z,22.73
2023-02-11T21:14:11.980Z,24.75
2023-02-11T21:16:40.105Z,23.00
2023-02-11T21:19:08.080Z,19.90
2023-02-11T21:21:36.932Z,20.17
2023-02-11T21:26:35.218Z,20.87
2023-02-11T21:29:03.018Z,22.93
2023-02-11T21:31:34.329Z,23.20
2023-02-11T21:34:02.230Z,22.57
2023-02-11T21:36:30.905Z,22.38
2023-02-11T21:38:58.742Z,21.92
2023-02-11T21:41:27.326Z,21.60
2023-02-11T21:43:56.424Z,20.55
2023-02-11T21:46:24.167Z,22.63
2023-02-11T21:48:52.572Z,23.13
2023-02-11T21:51:22.741Z,21.85
2023-02-11T21:53:54.454Z,22.13
2023-02-11T21:56:22.478Z,24.13
2023-02-11T21:58:53.718Z,22.85
2023-02-11T22:01:26.176Z,25.00
2023-02-11T22:03:54.047Z,21.73
2023-02-11T22:06:23.697Z,18.75
2023-02-11T22:08:51.685Z,26.23
2023-02-11T22:11:20.283Z,27.35
2023-02-11T22:13:48.434Z,23.05
2023-02-11T22:16:18.020Z,19.40
2023-02-11T22:18:47.359Z,24.43
2023-02-11T22:21:17.798Z,22.17
2023-02-11T22:23:46.487Z,21.57
2023-02-11T22:26:15.622Z,23.20
2023-02-11T22:28:43.696Z,20.53
2023-02-11T22:31:13.801Z,23.50
2023-02-11T22:33:41.716Z,25.40
2023-02-11T22:36:16.676Z,23.03
2023-02-11T22:38:44.414Z,24.70
2023-02-11T22:41:13.136Z,24.50
2023-02-11T22:43:42.388Z,26.23
2023-02-11T22:46:12.088Z,23.37
2023-02-11T22:48:39.913Z,26.40
2023-02-11T22:51:09.121Z,21.60
2023-02-11T22:53:38.462Z,27.53
2023-02-11T22:56:08.042Z,23.20
2023-02-11T22:58:36.418Z,20.37
2023-02-11T23:01:05.283Z,22.08
2023-02-11T23:03:33.434Z,23.23
2023-02-11T23:06:01.906Z,25.80
2023-02-11T23:08:32.167Z,30.67
2023-02-11T23:11:06.375Z,22.33
2023-02-11T23:13:35.982Z,24.97
2023-02-11T23:16:06.064Z,27.43
2023-02-11T23:18:33.937Z,26.73
2023-02-11T23:21:05.651Z,33.67
2023-02-11T23:23:34.379Z,25.93
2023-02-11T23:28:31.906Z,28.63
2023-02-11T23:30:59.638Z,28.13
2023-02-11T23:33:27.576Z,26.20
2023-02-11T23:35:55.536Z,25.57
2023-02-11T23:38:23.389Z,27.55
2023-02-11T23:40:51.075Z,24.90
2023-02-11T23:43:18.744Z,28.83
2023-02-11T23:45:48.123Z,28.87
2023-02-11T23:48:15.808Z,24.53
2023-02-11T23:50:44.668Z,24.10
2023-02-11T23:53:12.407Z,23.13
2023-02-11T23:55:41.476Z,26.10
2023-02-11T23:58:10.533Z,29.40
